Time;durP1;ratioP1;P1;durP2;ratioP2;P2;SDS_P1;SDS_P2;PMS_P1;PMS_P2;Temp;Humidity;BMP_temperature;BMP_pressure;BME280_temperature;BME280_humidity;BME280_pressure;Samples;Min_cycle;Max_cycle;Signal;HPM_P1;HPM_P2
2021/05/15 00:00:07;;;;;;;8.53;2.87;;;;;;;;;;4970709;28;20956;-76
2021/05/15 00:02:33;;;;;;;2.30;2.20;;;;;;;;;;4964480;28;20456;-77
2021/05/15 00:04:59;;;;;;;3.30;2.20;;;;;;;;;;4973786;28;20961;-76
2021/05/15 00:07:25;;;;;;;2.50;2.30;;;;;;;;;;4965338;28;20450;-76
2021/05/15 00:09:51;;;;;;;3.20;2.10;;;;;;;;;;4958769;28;20440;-76
2021/05/15 00:12:17;;;;;;;2.20;1.90;;;;;;;;;;4961849;28;20731;-75
2021/05/15 00:14:43;;;;;;;2.30;1.87;;;;;;;;;;4963718;28;20970;-76
2021/05/15 00:17:09;;;;;;;2.77;2.00;;;;;;;;;;4955865;28;20964;-76
2021/05/15 00:19:37;;;;;;;1.90;1.80;;;;;;;;;;4963024;28;20450;-76
2021/05/15 00:22:02;;;;;;;1.40;1.30;;;;;;;;;;4968918;28;20481;-76
2021/05/15 00:24:28;;;;;;;2.10;1.87;;;;;;;;;;4941763;28;20557;-77
2021/05/15 00:26:57;;;;;;;2.70;2.07;;;;;;;;;;4956747;28;20525;-76
2021/05/15 00:29:23;;;;;;;1.43;1.33;;;;;;;;;;4956909;28;20445;-78
2021/05/15 00:31:49;;;;;;;5.57;1.70;;;;;;;;;;4964293;28;20475;-77
2021/05/15 00:34:15;;;;;;;2.70;2.00;;;;;;;;;;4961313;28;20438;-76
2021/05/15 00:36:41;;;;;;;2.90;2.70;;;;;;;;;;4950678;28;20453;-76
2021/05/15 00:39:08;;;;;;;2.73;2.00;;;;;;;;;;4957912;28;20846;-77
2021/05/15 00:41:37;;;;;;;2.30;2.10;;;;;;;;;;4964928;28;20472;-76
2021/05/15 00:44:43;;;;;;;2.50;2.30;;;;;;;;;;4957984;28;20940;-75
2021/05/15 00:46:55;;;;;;;3.80;2.87;;;;;;;;;;4958004;28;20488;-76
2021/05/15 00:49:22;;;;;;;1.90;1.70;;;;;;;;;;4969834;28;20447;-78
2021/05/15 00:51:48;;;;;;;2.30;1.83;;;;;;;;;;4965871;28;20516;-77
2021/05/15 00:54:16;;;;;;;1.83;1.73;;;;;;;;;;4941959;28;20450;-76
2021/05/15 00:56:43;;;;;;;2.00;1.90;;;;;;;;;;4954848;28;20443;-75
2021/05/15 00:59:09;;;;;;;3.90;2.47;;;;;;;;;;4967413;28;20518;-76
2021/05/15 01:01:35;;;;;;;2.80;2.60;;;;;;;;;;4957213;28;20569;-75
2021/05/15 01:04:01;;;;;;;2.60;1.70;;;;;;;;;;4959549;28;20910;-76
2021/05/15 01:06:27;;;;;;;2.63;2.30;;;;;;;;;;4952498;28;20466;-75
2021/05/15 01:08:53;;;;;;;1.97;1.67;;;;;;;;;;4960549;28;20473;-75
2021/05/15 01:11:20;;;;;;;1.17;1.07;;;;;;;;;;4965541;28;20525;-75
2021/05/15 01:14:04;;;;;;;6.47;2.70;;;;;;;;;;4965993;28;20448;-75
2021/05/15 01:16:32;;;;;;;1.77;1.40;;;;;;;;;;4954090;28;20434;-74
2021/05/15 01:18:59;;;;;;;3.93;1.77;;;;;;;;;;4970907;28;20469;-75
2021/05/15 01:21:25;;;;;;;1.97;1.87;;;;;;;;;;4952611;28;20571;-75
2021/05/15 01:23:51;;;;;;;2.47;1.80;;;;;;;;;;4951548;28;20439;-77
2021/05/15 01:26:24;;;;;;;1.60;1.50;;;;;;;;;;4964388;28;20541;-76
2021/05/15 01:28:52;;;;;;;2.00;1.73;;;;;;;;;;4956946;28;20441;-75
2021/05/15 01:31:18;;;;;;;1.70;1.60;;;;;;;;;;4975416;28;20476;-75
2021/05/15 01:33:44;;;;;;;1.53;1.40;;;;;;;;;;4960674;28;20546;-75
2021/05/15 01:36:10;;;;;;;2.83;2.57;;;;;;;;;;4962883;28;20499;-76
2021/05/15 01:38:37;;;;;;;1.70;1.60;;;;;;;;;;4959901;28;20477;-75
2021/05/15 01:41:04;;;;;;;5.03;1.90;;;;;;;;;;4951272;28;20545;-76
2021/05/15 01:43:30;;;;;;;1.80;1.70;;;;;;;;;;4958409;28;20782;-76
2021/05/15 01:45:56;;;;;;;1.97;1.80;;;;;;;;;;4961378;28;20536;-76
2021/05/15 01:48:22;;;;;;;2.93;1.80;;;;;;;;;;4954368;28;20455;-76
2021/05/15 01:50:56;;;;;;;4.00;2.13;;;;;;;;;;4973292;28;20457;-76
2021/05/15 01:53:23;;;;;;;3.73;2.57;;;;;;;;;;4964406;28;20449;-76
2021/05/15 01:55:49;;;;;;;3.00;2.00;;;;;;;;;;4961940;28;20444;-75
2021/05/15 01:58:15;;;;;;;3.00;2.47;;;;;;;;;;4952969;28;20479;-75
2021/05/15 02:00:41;;;;;;;4.47;2.23;;;;;;;;;;4968354;28;20441;-75
2021/05/15 02:03:07;;;;;;;2.70;1.60;;;;;;;;;;4955802;28;20450;-76
2021/05/15 02:05:33;;;;;;;2.93;1.90;;;;;;;;;;4960967;28;20822;-75
2021/05/15 02:07:59;;;;;;;2.60;1.83;;;;;;;;;;4948455;28;20447;-76
2021/05/15 02:10:25;;;;;;;1.87;1.70;;;;;;;;;;4961970;28;20445;-76
2021/05/15 02:12:51;;;;;;;2.47;2.10;;;;;;;;;;4963327;28;20862;-77
2021/05/15 02:15:17;;;;;;;2.37;2.03;;;;;;;;;;4968923;28;20487;-76
2021/05/15 02:17:43;;;;;;;3.30;2.03;;;;;;;;;;4955425;28;20483;-75
2021/05/15 02:20:10;;;;;;;2.00;1.80;;;;;;;;;;4958928;28;20443;-75
2021/05/15 02:22:36;;;;;;;2.23;1.60;;;;;;;;;;4963034;28;20567;-77
2021/05/15 02:25:02;;;;;;;2.50;2.00;;;;;;;;;;4967400;28;20512;-75
2021/05/15 02:27:28;;;;;;;1.90;1.80;;;;;;;;;;4965764;28;20519;-76
2021/05/15 02:29:54;;;;;;;4.53;2.57;;;;;;;;;;4954973;28;20839;-74
2021/05/15 02:32:20;;;;;;;2.57;2.00;;;;;;;;;;4951501;28;20473;-75
2021/05/15 02:34:46;;;;;;;2.30;2.00;;;;;;;;;;4966331;28;20441;-75
2021/05/15 02:37:12;;;;;;;2.83;2.27;;;;;;;;;;4963474;28;20492;-75
2021/05/15 02:39:37;;;;;;;1.67;1.57;;;;;;;;;;4959049;28;20952;-75
2021/05/15 02:42:04;;;;;;;3.53;1.80;;;;;;;;;;4939719;28;20463;-77
2021/05/15 02:44:30;;;;;;;4.90;2.33;;;;;;;;;;4958953;28;20525;-75
2021/05/15 02:46:56;;;;;;;4.80;2.77;;;;;;;;;;4950426;28;20434;-74
2021/05/15 02:49:22;;;;;;;5.30;2.33;;;;;;;;;;4957000;28;20960;-74
2021/05/15 02:51:48;;;;;;;5.90;2.40;;;;;;;;;;4955634;28;20462;-76
2021/05/15 02:54:14;;;;;;;2.93;1.90;;;;;;;;;;4960795;28;20443;-76
2021/05/15 02:56:40;;;;;;;3.70;2.57;;;;;;;;;;4963217;28;20492;-75
2021/05/15 02:59:06;;;;;;;2.30;1.93;;;;;;;;;;4960711;28;20482;-74
2021/05/15 03:01:32;;;;;;;1.80;1.43;;;;;;;;;;4952328;28;20466;-78
2021/05/15 03:03:58;;;;;;;2.50;1.70;;;;;;;;;;4965690;28;20445;-75
2021/05/15 03:06:24;;;;;;;3.20;2.60;;;;;;;;;;4961237;28;20447;-75
2021/05/15 03:08:50;;;;;;;3.13;2.17;;;;;;;;;;4949547;28;20544;-75
2021/05/15 03:11:16;;;;;;;3.97;2.23;;;;;;;;;;4962699;28;20813;-76
2021/05/15 03:13:42;;;;;;;3.30;2.20;;;;;;;;;;4969534;28;20442;-75
2021/05/15 03:16:08;;;;;;;2.10;1.90;;;;;;;;;;4963983;28;20445;-75
2021/05/15 03:18:34;;;;;;;1.77;1.63;;;;;;;;;;4956745;28;20474;-76
2021/05/15 03:21:00;;;;;;;2.23;1.70;;;;;;;;;;4961356;28;20477;-76
2021/05/15 03:23:26;;;;;;;2.63;1.93;;;;;;;;;;4955820;28;20520;-75
2021/05/15 03:25:52;;;;;;;2.60;2.20;;;;;;;;;;4956575;28;20434;-75
2021/05/15 03:28:18;;;;;;;2.67;2.10;;;;;;;;;;4960496;28;20500;-77
2021/05/15 03:30:44;;;;;;;2.33;2.13;;;;;;;;;;4966281;28;20517;-75
2021/05/15 03:33:10;;;;;;;2.23;1.90;;;;;;;;;;4964343;28;20969;-75
2021/05/15 03:35:36;;;;;;;2.23;2.10;;;;;;;;;;4952885;28;20473;-75
2021/05/15 03:38:02;;;;;;;2.33;2.13;;;;;;;;;;4957276;28;20481;-78
2021/05/15 03:40:28;;;;;;;2.70;2.37;;;;;;;;;;4946775;29;20434;-75
2021/05/15 03:42:56;;;;;;;2.30;1.90;;;;;;;;;;4963547;28;20817;-75
2021/05/15 03:45:22;;;;;;;2.30;1.90;;;;;;;;;;4960040;28;20493;-75
2021/05/15 03:47:48;;;;;;;3.27;2.23;;;;;;;;;;4958748;28;20430;-75
2021/05/15 03:50:14;;;;;;;2.53;2.33;;;;;;;;;;4956621;28;20493;-75
2021/05/15 03:52:40;;;;;;;2.43;2.20;;;;;;;;;;4957115;28;20458;-75
2021/05/15 03:55:07;;;;;;;3.30;2.33;;;;;;;;;;4958700;28;20445;-75
2021/05/15 03:57:33;;;;;;;2.60;2.27;;;;;;;;;;4962370;28;20465;-76
2021/05/15 03:59:59;;;;;;;3.00;2.23;;;;;;;;;;4964428;28;20500;-75
2021/05/15 04:02:26;;;;;;;3.60;2.83;;;;;;;;;;4965021;28;21027;-76
2021/05/15 04:04:52;;;;;;;2.30;2.10;;;;;;;;;;4964640;28;20871;-75
2021/05/15 04:07:19;;;;;;;3.27;2.37;;;;;;;;;;4967479;28;20940;-76
2021/05/15 04:09:45;;;;;;;3.23;2.30;;;;;;;;;;4960335;28;20428;-75
2021/05/15 04:12:13;;;;;;;3.27;2.17;;;;;;;;;;4960240;28;20538;-74
2021/05/15 04:14:43;;;;;;;3.17;2.00;;;;;;;;;;4967914;28;20486;-75
2021/05/15 04:19:36;;;;;;;2.23;2.00;;;;;;;;;;4971927;28;20468;-75
2021/05/15 04:22:04;;;;;;;2.57;2.23;;;;;;;;;;4977757;28;20457;-75
2021/05/15 04:24:31;;;;;;;2.73;2.23;;;;;;;;;;4961902;28;20443;-75
2021/05/15 04:26:58;;;;;;;3.27;2.40;;;;;;;;;;4963542;28;20433;-75
2021/05/15 04:29:24;;;;;;;4.33;2.53;;;;;;;;;;4962734;28;20445;-75
2021/05/15 04:31:53;;;;;;;3.17;2.87;;;;;;;;;;4962838;28;20523;-76
2021/05/15 04:34:20;;;;;;;5.63;2.60;;;;;;;;;;4970992;28;20494;-75
2021/05/15 04:36:46;;;;;;;3.70;2.53;;;;;;;;;;4961061;28;20457;-75
2021/05/15 04:39:12;;;;;;;3.80;2.40;;;;;;;;;;4957402;28;21056;-75
2021/05/15 04:41:38;;;;;;;5.90;2.17;;;;;;;;;;4958655;28;20462;-75
2021/05/15 04:44:04;;;;;;;4.10;2.63;;;;;;;;;;4960211;28;20500;-75
2021/05/15 04:46:30;;;;;;;3.17;2.10;;;;;;;;;;4961946;28;20473;-75
2021/05/15 04:48:56;;;;;;;3.90;3.07;;;;;;;;;;4957891;28;20450;-75
2021/05/15 04:51:22;;;;;;;3.00;2.67;;;;;;;;;;4960224;28;20467;-75
2021/05/15 04:53:48;;;;;;;3.00;2.70;;;;;;;;;;4961822;28;20494;-74
2021/05/15 04:56:15;;;;;;;3.80;2.53;;;;;;;;;;4965497;28;20435;-76
2021/05/15 04:58:41;;;;;;;5.97;2.93;;;;;;;;;;4962292;28;20936;-75
2021/05/15 05:01:07;;;;;;;4.37;2.90;;;;;;;;;;4967675;28;20453;-77
2021/05/15 05:03:33;;;;;;;5.40;3.17;;;;;;;;;;4974215;28;20497;-75
2021/05/15 05:05:59;;;;;;;4.40;3.07;;;;;;;;;;4954108;28;20437;-75
2021/05/15 05:08:25;;;;;;;3.00;2.53;;;;;;;;;;4941146;28;20451;-75
2021/05/15 05:10:55;;;;;;;4.10;2.80;;;;;;;;;;4956258;28;20450;-75
2021/05/15 05:13:21;;;;;;;5.03;3.13;;;;;;;;;;4955033;28;20478;-75
2021/05/15 05:15:47;;;;;;;4.03;2.60;;;;;;;;;;4967346;28;20807;-75
2021/05/15 05:18:13;;;;;;;4.70;2.70;;;;;;;;;;4963581;28;20474;-75
2021/05/15 05:20:40;;;;;;;4.87;3.20;;;;;;;;;;4969183;28;20818;-75
2021/05/15 05:23:06;;;;;;;3.33;2.37;;;;;;;;;;4974488;28;20460;-74
2021/05/15 05:25:32;;;;;;;5.47;3.17;;;;;;;;;;4964905;28;20440;-75
2021/05/15 05:27:59;;;;;;;4.70;3.47;;;;;;;;;;4949798;28;20447;-75
2021/05/15 05:30:25;;;;;;;4.80;2.90;;;;;;;;;;4956065;28;20449;-75
2021/05/15 05:32:51;;;;;;;9.00;3.87;;;;;;;;;;4953925;28;20468;-75
2021/05/15 05:35:17;;;;;;;4.50;3.30;;;;;;;;;;4954248;28;20945;-75
2021/05/15 05:37:43;;;;;;;5.93;3.57;;;;;;;;;;4957081;28;20463;-76
2021/05/15 05:40:10;;;;;;;4.93;3.50;;;;;;;;;;4951341;28;20473;-76
2021/05/15 05:42:37;;;;;;;4.57;2.97;;;;;;;;;;4955278;28;20628;-75
2021/05/15 05:45:07;;;;;;;5.40;3.90;;;;;;;;;;4967219;28;20431;-75
2021/05/15 05:47:33;;;;;;;6.63;4.80;;;;;;;;;;4967963;28;20442;-76
2021/05/15 05:49:59;;;;;;;3.23;2.60;;;;;;;;;;4959907;28;20529;-76
2021/05/15 05:52:25;;;;;;;5.50;3.50;;;;;;;;;;4965426;28;20474;-76
2021/05/15 05:54:51;;;;;;;5.10;2.90;;;;;;;;;;4944637;28;20592;-75
2021/05/15 05:57:17;;;;;;;3.27;2.57;;;;;;;;;;4975564;28;20426;-76
2021/05/15 05:59:43;;;;;;;3.17;2.53;;;;;;;;;;4960742;28;20803;-75
2021/05/15 06:02:11;;;;;;;5.77;3.50;;;;;;;;;;4960112;28;20537;-74
2021/05/15 06:04:37;;;;;;;3.90;2.80;;;;;;;;;;4953028;28;20442;-75
2021/05/15 06:07:03;;;;;;;6.03;3.80;;;;;;;;;;4953090;28;20445;-75
2021/05/15 06:09:29;;;;;;;4.17;3.30;;;;;;;;;;4955873;28;20446;-75
2021/05/15 06:11:55;;;;;;;6.50;4.13;;;;;;;;;;4949459;28;20462;-77
2021/05/15 06:14:21;;;;;;;5.60;3.20;;;;;;;;;;4960021;28;20448;-76
2021/05/15 06:16:47;;;;;;;7.93;3.30;;;;;;;;;;4952401;28;20972;-75
2021/05/15 06:19:15;;;;;;;4.47;2.53;;;;;;;;;;4950261;28;20474;-74
2021/05/15 06:21:41;;;;;;;6.10;3.33;;;;;;;;;;4949711;28;20553;-76
2021/05/15 06:24:07;;;;;;;6.00;3.60;;;;;;;;;;4954666;28;20552;-75
2021/05/15 06:26:33;;;;;;;6.17;3.47;;;;;;;;;;4954108;28;20481;-74
2021/05/15 06:28:59;;;;;;;6.40;3.80;;;;;;;;;;4948854;28;20442;-75
2021/05/15 06:31:25;;;;;;;6.37;3.50;;;;;;;;;;4949591;28;20482;-76
2021/05/15 06:33:52;;;;;;;5.00;3.70;;;;;;;;;;4961094;28;20983;-75
2021/05/15 06:36:18;;;;;;;4.93;3.23;;;;;;;;;;4956727;28;20472;-75
2021/05/15 06:38:44;;;;;;;4.83;2.87;;;;;;;;;;4953724;28;20486;-74
2021/05/15 06:41:10;;;;;;;4.53;3.63;;;;;;;;;;4952213;28;20906;-74
2021/05/15 06:43:36;;;;;;;6.90;3.63;;;;;;;;;;4945056;28;20454;-76
2021/05/15 06:46:02;;;;;;;4.13;3.40;;;;;;;;;;4955989;28;20469;-73
2021/05/15 06:48:28;;;;;;;5.30;3.77;;;;;;;;;;4957382;28;20447;-74
2021/05/15 06:50:54;;;;;;;7.10;3.90;;;;;;;;;;4948511;28;21039;-75
2021/05/15 06:53:20;;;;;;;6.70;3.77;;;;;;;;;;4953157;28;20442;-74
2021/05/15 06:55:46;;;;;;;6.97;3.97;;;;;;;;;;4963579;28;20445;-75
2021/05/15 06:58:13;;;;;;;6.17;3.30;;;;;;;;;;4952345;28;21185;-74
2021/05/15 07:00:39;;;;;;;5.90;3.60;;;;;;;;;;4955234;28;20469;-75
2021/05/15 07:03:05;;;;;;;5.90;4.30;;;;;;;;;;4959959;28;20465;-74
2021/05/15 07:05:32;;;;;;;7.03;3.77;;;;;;;;;;4959016;28;20437;-74
2021/05/15 07:07:58;;;;;;;5.10;3.30;;;;;;;;;;4962927;28;20449;-76
2021/05/15 07:10:24;;;;;;;6.47;3.77;;;;;;;;;;4949922;28;20501;-74
2021/05/15 07:12:50;;;;;;;5.93;3.30;;;;;;;;;;4952853;28;20492;-74
2021/05/15 07:15:16;;;;;;;7.50;4.47;;;;;;;;;;4956286;28;20477;-73
2021/05/15 07:17:42;;;;;;;8.17;3.83;;;;;;;;;;4951719;28;20480;-72
2021/05/15 07:20:11;;;;;;;8.10;4.30;;;;;;;;;;4957889;28;20448;-72
2021/05/15 07:22:39;;;;;;;4.50;3.43;;;;;;;;;;4950589;28;20556;-73
2021/05/15 07:25:05;;;;;;;9.20;3.47;;;;;;;;;;4950208;28;20444;-72
2021/05/15 07:27:31;;;;;;;9.33;4.20;;;;;;;;;;4961674;28;20526;-74
2021/05/15 07:29:57;;;;;;;6.90;4.10;;;;;;;;;;4957176;28;20522;-71
2021/05/15 07:32:24;;;;;;;6.37;3.27;;;;;;;;;;4959244;28;20668;-73
2021/05/15 07:34:51;;;;;;;5.40;4.20;;;;;;;;;;4967490;28;20958;-72
2021/05/15 07:37:17;;;;;;;6.03;3.27;;;;;;;;;;4950207;28;20434;-73
2021/05/15 07:39:43;;;;;;;5.63;4.00;;;;;;;;;;4964521;28;20446;-73
2021/05/15 07:42:10;;;;;;;6.80;4.23;;;;;;;;;;4954610;28;20466;-73
2021/05/15 07:44:36;;;;;;;6.80;4.03;;;;;;;;;;4958818;28;20442;-75
2021/05/15 07:47:03;;;;;;;3.60;2.97;;;;;;;;;;4973059;28;20444;-73
2021/05/15 07:49:29;;;;;;;4.13;3.17;;;;;;;;;;4946638;28;20453;-73
2021/05/15 07:51:55;;;;;;;5.97;3.63;;;;;;;;;;4969256;28;20462;-72
2021/05/15 07:54:21;;;;;;;5.70;4.00;;;;;;;;;;4971510;28;20486;-73
2021/05/15 07:56:48;;;;;;;6.80;3.97;;;;;;;;;;4960433;28;20468;-73
2021/05/15 07:59:15;;;;;;;5.80;3.37;;;;;;;;;;4960151;28;20882;-73
2021/05/15 08:01:41;;;;;;;6.00;3.67;;;;;;;;;;4952568;28;20451;-73
2021/05/15 08:04:07;;;;;;;8.13;3.87;;;;;;;;;;4940003;28;20859;-73
2021/05/15 08:06:33;;;;;;;5.63;3.50;;;;;;;;;;4969170;28;20535;-73
2021/05/15 08:08:59;;;;;;;8.27;4.13;;;;;;;;;;4965406;28;20829;-73
2021/05/15 08:11:26;;;;;;;9.90;4.37;;;;;;;;;;4964835;28;20469;-73
2021/05/15 08:13:52;;;;;;;8.70;4.03;;;;;;;;;;4961449;28;20446;-72
2021/05/15 08:16:18;;;;;;;6.57;4.33;;;;;;;;;;4953835;28;20482;-75
2021/05/15 08:18:44;;;;;;;5.20;3.73;;;;;;;;;;4965771;28;20492;-74
2021/05/15 08:21:11;;;;;;;5.33;4.00;;;;;;;;;;4964202;28;20466;-73
2021/05/15 08:23:38;;;;;;;4.73;3.83;;;;;;;;;;4941945;28;20481;-78
2021/05/15 08:26:08;;;;;;;5.70;3.73;;;;;;;;;;4960525;28;20480;-72
2021/05/15 08:28:35;;;;;;;8.50;4.37;;;;;;;;;;4969220;28;20504;-73
2021/05/15 08:31:01;;;;;;;8.20;4.30;;;;;;;;;;4968203;28;20983;-73
2021/05/15 08:33:27;;;;;;;12.80;3.90;;;;;;;;;;4957150;28;20442;-73
2021/05/15 08:35:53;;;;;;;5.93;4.03;;;;;;;;;;4950442;28;20437;-75
2021/05/15 08:38:19;;;;;;;5.13;3.70;;;;;;;;;;4968714;28;20466;-73
2021/05/15 08:40:45;;;;;;;5.03;3.60;;;;;;;;;;4978667;28;20512;-71
2021/05/15 08:43:14;;;;;;;5.00;3.53;;;;;;;;;;4963830;28;20446;-72
2021/05/15 08:45:41;;;;;;;4.10;3.37;;;;;;;;;;4948103;28;20442;-73
2021/05/15 08:48:10;;;;;;;6.33;4.23;;;;;;;;;;4953769;28;20441;-74
2021/05/15 08:50:36;;;;;;;7.20;5.13;;;;;;;;;;4957768;28;20432;-72
2021/05/15 08:53:02;;;;;;;6.90;4.30;;;;;;;;;;4959775;28;20455;-72
2021/05/15 08:55:29;;;;;;;5.77;3.93;;;;;;;;;;4963010;28;20438;-72
2021/05/15 08:57:59;;;;;;;6.17;3.77;;;;;;;;;;4954181;28;20487;-71
2021/05/15 09:00:35;;;;;;;6.77;4.00;;;;;;;;;;4960595;28;20493;-72
2021/05/15 09:03:07;;;;;;;7.30;3.97;;;;;;;;;;4960470;28;20524;-70
2021/05/15 09:05:34;;;;;;;4.43;3.03;;;;;;;;;;4961154;28;20495;-71
2021/05/15 09:08:01;;;;;;;8.30;4.90;;;;;;;;;;4953042;28;20474;-70
2021/05/15 09:10:29;;;;;;;6.90;3.90;;;;;;;;;;4959330;28;20444;-70
2021/05/15 09:13:17;;;;;;;7.93;4.43;;;;;;;;;;4950223;28;20464;-70
2021/05/15 09:15:45;;;;;;;5.70;4.23;;;;;;;;;;4960136;28;20449;-71
2021/05/15 09:18:13;;;;;;;8.63;6.03;;;;;;;;;;4974415;28;20477;-70
2021/05/15 09:20:39;;;;;;;8.83;4.00;;;;;;;;;;4970810;28;20443;-71
2021/05/15 09:23:12;;;;;;;8.83;4.40;;;;;;;;;;4960559;28;20486;-72
2021/05/15 09:25:38;;;;;;;8.07;5.20;;;;;;;;;;4956726;28;20885;-72
2021/05/15 09:28:04;;;;;;;7.90;4.60;;;;;;;;;;4968501;28;20847;-71
2021/05/15 09:30:31;;;;;;;12.77;5.70;;;;;;;;;;4970394;28;20453;-71
2021/05/15 09:32:57;;;;;;;7.37;4.60;;;;;;;;;;4970652;28;20496;-71
2021/05/15 09:35:27;;;;;;;7.27;4.80;;;;;;;;;;4972858;28;20513;-71
2021/05/15 09:37:53;;;;;;;6.57;4.67;;;;;;;;;;4968718;28;20918;-72
2021/05/15 09:40:19;;;;;;;5.80;4.30;;;;;;;;;;4963443;28;20442;-71
2021/05/15 09:42:50;;;;;;;5.73;4.33;;;;;;;;;;4969533;28;20450;-71
2021/05/15 09:45:26;;;;;;;7.83;4.67;;;;;;;;;;4956556;28;20429;-71
2021/05/15 09:47:56;;;;;;;6.90;5.20;;;;;;;;;;4966243;28;20445;-70
2021/05/15 09:50:24;;;;;;;6.97;4.37;;;;;;;;;;4950815;28;20457;-71
2021/05/15 09:52:50;;;;;;;9.87;4.03;;;;;;;;;;4952861;28;20467;-71
2021/05/15 09:55:16;;;;;;;8.33;4.90;;;;;;;;;;4955670;28;20470;-71
2021/05/15 09:57:42;;;;;;;6.73;4.00;;;;;;;;;;4951726;28;20853;-71
2021/05/15 10:00:11;;;;;;;8.90;5.47;;;;;;;;;;4956352;28;20442;-71
2021/05/15 10:02:38;;;;;;;7.83;4.50;;;;;;;;;;4964071;28;20469;-71
2021/05/15 10:05:11;;;;;;;9.43;5.20;;;;;;;;;;4948978;28;20508;-70
2021/05/15 10:07:38;;;;;;;6.30;3.97;;;;;;;;;;4968292;28;20441;-71
2021/05/15 10:10:05;;;;;;;8.83;4.63;;;;;;;;;;4971210;28;20431;-71
2021/05/15 10:12:33;;;;;;;12.40;6.27;;;;;;;;;;4958111;28;21055;-71
2021/05/15 10:14:59;;;;;;;11.03;6.23;;;;;;;;;;4965951;28;20528;-70
2021/05/15 10:17:25;;;;;;;12.13;5.83;;;;;;;;;;4959282;28;20446;-71
2021/05/15 10:19:51;;;;;;;12.70;6.30;;;;;;;;;;4961914;28;20442;-70
2021/05/15 10:22:17;;;;;;;8.80;5.67;;;;;;;;;;4952807;28;20546;-71
2021/05/15 10:24:47;;;;;;;10.63;6.00;;;;;;;;;;4938222;28;20951;-71
2021/05/15 10:27:15;;;;;;;10.67;6.00;;;;;;;;;;4958658;28;20430;-71
2021/05/15 10:29:47;;;;;;;12.00;6.43;;;;;;;;;;4963768;28;20452;-71
2021/05/15 10:32:15;;;;;;;11.93;6.20;;;;;;;;;;4953752;28;20612;-71
2021/05/15 10:34:45;;;;;;;8.47;5.87;;;;;;;;;;4981677;28;20428;-71
2021/05/15 10:37:17;;;;;;;10.00;5.37;;;;;;;;;;4951548;28;20441;-71
2021/05/15 10:39:44;;;;;;;11.07;5.80;;;;;;;;;;4963324;28;20473;-71
2021/05/15 10:42:10;;;;;;;12.60;6.40;;;;;;;;;;4958576;28;20929;-72
2021/05/15 10:44:43;;;;;;;11.20;6.07;;;;;;;;;;4953393;28;20794;-72
2021/05/15 10:47:09;;;;;;;13.00;7.07;;;;;;;;;;4960268;28;21032;-73
2021/05/15 10:49:36;;;;;;;13.70;7.60;;;;;;;;;;4946188;28;20452;-72
2021/05/15 10:52:11;;;;;;;9.83;6.03;;;;;;;;;;4967922;28;20496;-71
2021/05/15 10:54:42;;;;;;;13.60;7.53;;;;;;;;;;4955907;28;20534;-71
2021/05/15 10:57:12;;;;;;;13.10;7.97;;;;;;;;;;4954812;28;20554;-72
2021/05/15 10:59:40;;;;;;;15.13;7.00;;;;;;;;;;4965850;28;20556;-71
2021/05/15 11:02:10;;;;;;;12.50;8.03;;;;;;;;;;4945967;28;20454;-72
2021/05/15 11:04:47;;;;;;;15.37;8.23;;;;;;;;;;4954686;28;20477;-72
2021/05/15 11:07:13;;;;;;;14.67;7.73;;;;;;;;;;4955677;28;20429;-74
2021/05/15 11:09:52;;;;;;;14.00;8.00;;;;;;;;;;4954419;28;20445;-73
2021/05/15 11:12:19;;;;;;;11.93;7.50;;;;;;;;;;4958162;28;20466;-75
2021/05/15 11:14:49;;;;;;;13.37;8.10;;;;;;;;;;4955979;28;20537;-73
2021/05/15 11:17:21;;;;;;;16.70;7.87;;;;;;;;;;4952188;28;20439;-73
2021/05/15 11:19:58;;;;;;;14.07;8.20;;;;;;;;;;4966671;28;21067;-74
2021/05/15 11:22:44;;;;;;;16.23;8.20;;;;;;;;;;4951348;28;20520;-74
2021/05/15 11:25:16;;;;;;;13.97;8.37;;;;;;;;;;4941194;28;21264;-73
2021/05/15 11:27:51;;;;;;;15.60;8.13;;;;;;;;;;4957464;28;20431;-74
2021/05/15 11:30:17;;;;;;;13.73;7.97;;;;;;;;;;4957630;28;20442;-75
2021/05/15 11:32:55;;;;;;;17.30;8.67;;;;;;;;;;4971121;28;20453;-74
2021/05/15 11:35:22;;;;;;;13.90;8.13;;;;;;;;;;4957116;28;20435;-74
2021/05/15 11:37:48;;;;;;;14.13;7.43;;;;;;;;;;4963886;28;20464;-73
2021/05/15 11:40:14;;;;;;;12.50;8.00;;;;;;;;;;4958444;28;20430;-73
2021/05/15 11:42:40;;;;;;;17.03;9.80;;;;;;;;;;4966284;28;20461;-73
2021/05/15 11:45:06;;;;;;;13.87;7.70;;;;;;;;;;4956570;28;20873;-73
2021/05/15 11:47:32;;;;;;;15.73;8.60;;;;;;;;;;4953562;28;21013;-74
2021/05/15 11:50:00;;;;;;;15.90;9.20;;;;;;;;;;4968823;28;20438;-72
2021/05/15 11:52:30;;;;;;;15.87;9.27;;;;;;;;;;4974701;28;20548;-74
2021/05/15 11:54:56;;;;;;;16.10;7.97;;;;;;;;;;4957280;28;20442;-73
2021/05/15 11:57:26;;;;;;;13.63;8.70;;;;;;;;;;4964226;28;20952;-74
2021/05/15 11:59:52;;;;;;;17.97;9.47;;;;;;;;;;4964757;28;20438;-74
2021/05/15 12:02:18;;;;;;;17.03;8.40;;;;;;;;;;4957296;28;20459;-75
2021/05/15 12:04:45;;;;;;;16.27;9.20;;;;;;;;;;4958985;28;20444;-73
2021/05/15 12:07:14;;;;;;;13.63;8.23;;;;;;;;;;4963286;28;20439;-74
2021/05/15 12:09:40;;;;;;;13.67;8.77;;;;;;;;;;4947691;28;20866;-74
2021/05/15 12:12:09;;;;;;;13.40;8.20;;;;;;;;;;4947646;28;20469;-74
2021/05/15 12:14:38;;;;;;;16.47;8.73;;;;;;;;;;4974085;28;20606;-74
2021/05/15 12:17:05;;;;;;;14.17;9.50;;;;;;;;;;4971418;28;20927;-73
2021/05/15 12:19:31;;;;;;;10.57;7.40;;;;;;;;;;4979662;28;20523;-72
2021/05/15 12:22:02;;;;;;;16.77;8.57;;;;;;;;;;4963777;28;20476;-73
2021/05/15 12:24:35;;;;;;;18.53;9.30;;;;;;;;;;4953044;28;20466;-74
2021/05/15 12:27:15;;;;;;;13.97;9.00;;;;;;;;;;4968477;28;20433;-72
2021/05/15 12:29:42;;;;;;;11.53;6.77;;;;;;;;;;4970621;28;20437;-73
2021/05/15 12:32:09;;;;;;;12.73;8.13;;;;;;;;;;4964769;28;21044;-72
2021/05/15 12:34:35;;;;;;;15.97;8.70;;;;;;;;;;4969270;28;20815;-73
2021/05/15 12:37:01;;;;;;;15.70;8.77;;;;;;;;;;4945115;28;20461;-72
2021/05/15 12:39:33;;;;;;;19.63;9.23;;;;;;;;;;4960793;28;20575;-74
2021/05/15 12:42:00;;;;;;;11.40;7.50;;;;;;;;;;4974788;28;21128;-74
2021/05/15 12:44:35;;;;;;;12.73;7.67;;;;;;;;;;4972344;28;20457;-74
2021/05/15 12:47:01;;;;;;;16.07;8.90;;;;;;;;;;4966072;28;20440;-73
2021/05/15 12:49:34;;;;;;;15.23;8.13;;;;;;;;;;4967125;28;20449;-75
2021/05/15 12:52:00;;;;;;;16.70;8.43;;;;;;;;;;4958052;28;20527;-74
2021/05/15 12:54:29;;;;;;;22.87;9.47;;;;;;;;;;4956222;28;21172;-72
2021/05/15 12:57:01;;;;;;;14.20;9.13;;;;;;;;;;4957842;28;20434;-74
2021/05/15 12:59:27;;;;;;;16.63;9.20;;;;;;;;;;4948741;28;20470;-73
2021/05/15 13:01:53;;;;;;;15.27;9.03;;;;;;;;;;4953373;28;20461;-74
2021/05/15 13:04:26;;;;;;;15.33;8.90;;;;;;;;;;4954504;28;20431;-76
2021/05/15 13:06:52;;;;;;;14.00;7.77;;;;;;;;;;4961491;28;20439;-73
2021/05/15 13:09:25;;;;;;;14.83;8.93;;;;;;;;;;4958360;28;20441;-75
2021/05/15 13:11:51;;;;;;;13.43;7.97;;;;;;;;;;4957130;28;20469;-75
2021/05/15 13:14:22;;;;;;;14.00;8.90;;;;;;;;;;4951949;28;20449;-74
2021/05/15 13:16:49;;;;;;;15.03;8.60;;;;;;;;;;4963685;28;20434;-75
2021/05/15 13:19:15;;;;;;;14.30;8.13;;;;;;;;;;4950019;28;20467;-76
2021/05/15 13:21:41;;;;;;;15.80;8.47;;;;;;;;;;4963247;28;20481;-75
2021/05/15 13:24:07;;;;;;;16.17;8.90;;;;;;;;;;4948358;28;20446;-74
2021/05/15 13:26:33;;;;;;;16.70;8.97;;;;;;;;;;4945129;28;20437;-74
2021/05/15 13:28:59;;;;;;;12.70;7.53;;;;;;;;;;4960135;28;20442;-74
2021/05/15 13:31:25;;;;;;;12.40;7.13;;;;;;;;;;4961869;28;20481;-75
2021/05/15 13:33:51;;;;;;;14.07;8.13;;;;;;;;;;4959093;28;21020;-75
2021/05/15 13:36:17;;;;;;;11.90;7.03;;;;;;;;;;4946135;28;20524;-75
2021/05/15 13:38:43;;;;;;;12.80;7.87;;;;;;;;;;4956106;28;20991;-77
2021/05/15 13:41:11;;;;;;;13.17;8.80;;;;;;;;;;4952068;28;20470;-76
2021/05/15 13:43:37;;;;;;;15.03;8.60;;;;;;;;;;4952754;28;20434;-73
2021/05/15 13:46:03;;;;;;;10.90;6.90;;;;;;;;;;4953092;28;20446;-76
2021/05/15 13:48:32;;;;;;;11.23;6.93;;;;;;;;;;4956678;28;20430;-74
2021/05/15 13:51:09;;;;;;;8.87;5.80;;;;;;;;;;4959890;28;20457;-75
2021/05/15 13:53:36;;;;;;;10.67;5.10;;;;;;;;;;4957142;28;21968;-76
2021/05/15 13:56:03;;;;;;;8.50;5.30;;;;;;;;;;4967193;28;20480;-76
2021/05/15 13:58:29;;;;;;;11.37;6.10;;;;;;;;;;4960719;28;20474;-77
2021/05/15 14:00:56;;;;;;;9.00;5.73;;;;;;;;;;4959060;28;20832;-77
2021/05/15 14:03:22;;;;;;;9.97;4.00;;;;;;;;;;4962829;28;20437;-78
2021/05/15 14:05:48;;;;;;;5.13;3.27;;;;;;;;;;4965055;28;20442;-75
2021/05/15 14:08:14;;;;;;;3.70;2.33;;;;;;;;;;4960517;28;20788;-76
2021/05/15 14:10:41;;;;;;;6.10;3.30;;;;;;;;;;4953747;28;20442;-75
2021/05/15 14:13:07;;;;;;;2.87;2.50;;;;;;;;;;4951597;28;20445;-75
2021/05/15 14:15:33;;;;;;;3.87;2.70;;;;;;;;;;4937465;28;20450;-75
2021/05/15 14:17:59;;;;;;;3.63;2.47;;;;;;;;;;4962338;28;20498;-78
2021/05/15 14:20:25;;;;;;;5.13;3.90;;;;;;;;;;4949539;28;20541;-77
2021/05/15 14:22:51;;;;;;;4.80;3.10;;;;;;;;;;4955757;28;20454;-77
2021/05/15 14:25:18;;;;;;;5.40;3.73;;;;;;;;;;4954439;28;20434;-78
2021/05/15 14:27:44;;;;;;;8.17;5.83;;;;;;;;;;4970783;28;20928;-77
2021/05/15 14:30:10;;;;;;;20.93;9.33;;;;;;;;;;4970338;28;20417;-77
2021/05/15 14:32:38;;;;;;;16.17;8.33;;;;;;;;;;4965614;28;20524;-77
2021/05/15 14:35:05;;;;;;;9.30;5.63;;;;;;;;;;4971447;28;20476;-78
2021/05/15 14:37:31;;;;;;;17.90;9.50;;;;;;;;;;4974728;28;20460;-77
2021/05/15 14:39:57;;;;;;;24.40;9.57;;;;;;;;;;4940654;29;20533;-77
2021/05/15 14:42:25;;;;;;;15.33;8.07;;;;;;;;;;4950736;28;20474;-77